Buoy 46930

sailwx.info

Track history (hours):
 
Tides and Currents Weather Stations Pressure Air Temp Water Temp Dewpoint Dewpoint Depression Visibility Wind Speed Wind Dir Waves Ship Positions

Drifting buoy 46930

Last reported at 2014-Oct-31 18:00 UTC. Time now 2014-Nov-01 02:44 UTC.
Position N 18°06' W 117°21'.

Water temperature 26.2 ° C

Date/timePositionNaut miles runAvg speedWind from/ knotsBaromVisibWave heightAir tempDewpointWater temp
2014-Oct-31 18:00N 18°06' W 117°21'0 0.2 26.2
2014-Oct-31 17:00N 18°06' W 117°20'2 2.0 26.2
2014-Oct-31 16:00N 18°06' W 117°22'0 0.0 26.2
2014-Oct-31 14:00N 18°06' W 117°22'1 0.5 26.2
2014-Oct-31 12:00N 18°05' W 117°22'0 0.0 26.2
2014-Oct-31 10:00N 18°05' W 117°22'0 0.1 26.2
2014-Oct-31 08:00N 18°04' W 117°22'0 0.3 26.2
2014-Oct-31 07:00N 18°04' W 117°22'1 0.9 26.2
2014-Oct-31 06:00N 18°04' W 117°23'1 0.2 26.2
2014-Oct-31 02:00N 18°04' W 117°22'0 0.1 26.3
2014-Oct-30 22:00N 18°04' W 117°22'0 0.2 26.5
2014-Oct-30 20:00N 18°05' W 117°23'0 0.1 26.4
2014-Oct-30 19:00N 18°05' W 117°23'1 0.5 26.3
2014-Oct-30 18:00N 18°05' W 117°23'1 0.8 26.3
2014-Oct-30 17:00N 18°05' W 117°24'1 0.9 26.2
2014-Oct-30 16:00N 18°05' W 117°25'0 0.0 26.2
2014-Oct-30 14:00N 18°05' W 117°25'1 0.3 26.2
2014-Oct-30 12:00N 18°05' W 117°24'1 0.4 26.2
2014-Oct-30 10:00N 18°05' W 117°25'0 0.1 26.2
2014-Oct-30 08:00N 18°05' W 117°25'1 0.3 26.2
2014-Oct-30 06:00N 18°05' W 117°25'2 1.7 26.2
2014-Oct-30 05:00N 18°04' W 117°26'1 0.7 26.2
2014-Oct-30 03:00N 18°05' W 117°25'2 0.8 26.3
2014-Oct-30 00:00N 18°06' W 117°28'0 0.0 26.4
2014-Oct-29 23:00N 18°06' W 117°28'1 1.0 26.4
2014-Oct-29 22:00N 18°06' W 117°29'0 0.1 26.4
2014-Oct-29 20:00N 18°06' W 117°29'1 0.8 26.3
2014-Oct-29 19:00N 18°05' W 117°29'1 0.8 26.3
2014-Oct-29 18:00N 18°05' W 117°30'0 0.0 26.2
2014-Oct-29 17:00N 18°05' W 117°30'1 0.9 26.1
2014-Oct-29 16:00N 18°04' W 117°30'1 0.2 26.1
2014-Oct-29 11:00N 18°05' W 117°29'0 0.1 26.1
2014-Oct-29 10:00N 18°04' W 117°29'1 0.1 26.1
2014-Oct-29 05:00N 18°05' W 117°29'1 0.5 26.2
2014-Oct-29 03:00N 18°05' W 117°29'0 0.0 26.2
2014-Oct-29 02:00N 18°05' W 117°29'1 1.4 26.3
2014-Oct-29 01:00N 18°07' W 117°29'2 1.8 26.3
2014-Oct-29 00:00N 18°08' W 117°30'0 0.1 26.3
2014-Oct-28 22:00N 18°08' W 117°30'1 1.1 26.4
2014-Oct-28 21:00N 18°08' W 117°31'0 0.1 26.3
2014-Oct-28 20:00N 18°08' W 117°32'1 0.3 26.3
2014-Oct-28 18:00N 18°09' W 117°32'1 0.6 26.2
2014-Oct-28 16:00N 18°09' W 117°33'1 0.3 26.1
2014-Oct-28 12:00N 18°09' W 117°34'1 0.9 26.1
2014-Oct-28 11:00N 18°09' W 117°35'0 0.0 26.1
2014-Oct-28 10:00N 18°09' W 117°35'0 0.0 26.1
2014-Oct-28 08:00N 18°09' W 117°35'1 0.4 26.1
2014-Oct-28 06:00N 18°09' W 117°34'0 0.1 26.2
2014-Oct-28 03:00N 18°09' W 117°34'1 0.6 26.2
2014-Oct-28 02:00N 18°10' W 117°34'0 0.1 26.2
2014-Oct-28 01:00N 18°09' W 117°34'1 0.6 26.2
2014-Oct-27 23:00N 18°10' W 117°36'0 0.1 26.3
2014-Oct-27 22:00N 18°10' W 117°36'0 0.1 26.3
2014-Oct-27 20:00N 18°10' W 117°36'1 0.6 26.3
2014-Oct-27 18:00N 18°11' W 117°35'1 0.7 26.2
2014-Oct-27 17:00N 18°12' W 117°35'0 0.0 26.2
2014-Oct-27 16:00N 18°12' W 117°35'2 0.6 26.2
2014-Oct-27 13:00N 18°13' W 117°35'0 0.0 26.2
2014-Oct-27 12:00N 18°13' W 117°35'0 0.3 26.2
2014-Oct-27 11:00N 18°14' W 117°35'1 1.1 26.2
2014-Oct-27 10:00N 18°14' W 117°36'2 0.3 26.2
2014-Oct-27 04:00N 18°16' W 117°36'0 0.0 26.3
2014-Oct-27 03:00N 18°16' W 117°36'2 0.5 26.3
2014-Oct-26 23:00N 18°16' W 117°38'1 0.7 26.4
2014-Oct-26 22:00N 18°16' W 117°38'0 0.2 26.4
2014-Oct-26 20:00N 18°17' W 117°38'0 0.1 26.5
2014-Oct-26 15:00N 18°16' W 117°38'0 0.0 26.2
2014-Oct-26 13:00N 18°16' W 117°38'1 0.3 26.2
2014-Oct-26 11:00N 18°17' W 117°38'1 0.5 26.2
2014-Oct-26 10:00N 18°17' W 117°37'0 0.0 26.3
2014-Oct-26 08:00N 18°17' W 117°37'2 1.1 26.3
2014-Oct-26 06:00N 18°19' W 117°37'1 0.3 26.4
2014-Oct-26 02:00N 18°20' W 117°36'1 0.7 26.5
2014-Oct-26 00:00N 18°21' W 117°37'3 0.8 26.6
2014-Oct-25 20:00N 18°24' W 117°38'1 0.4 26.7
2014-Oct-25 18:00N 18°25' W 117°38'0 0.0 26.3
2014-Oct-25 17:00N 18°25' W 117°38'1 1.2 26.3
2014-Oct-25 16:00N 18°25' W 117°40'0 0.0 26.2
2014-Oct-25 15:00N 18°25' W 117°40'1 0.3 26.1
2014-Oct-25 12:00N 18°25' W 117°40'1 0.9 26.1
2014-Oct-25 11:00N 18°26' W 117°41'0 0.1 26.1
2014-Oct-25 07:00N 18°26' W 117°41'1 1.0 26.2
2014-Oct-25 06:00N 18°27' W 117°41'0 0.0 26.2
2014-Oct-25 05:00N 18°27' W 117°41'1 0.4 26.2
2014-Oct-25 02:00N 18°27' W 117°40'1 0.8 26.3
2014-Oct-25 01:00N 18°27' W 117°41'0 0.2 26.3
2014-Oct-24 23:00N 18°28' W 117°41'2 0.4 26.4
2014-Oct-24 18:00N 18°30' W 117°40'0 0.0 26.1
2014-Oct-24 17:00N 18°30' W 117°40'2 2.0 26.0
2014-Oct-24 16:00N 18°31' W 117°42'0 0.1 26.0
2014-Oct-24 14:00N 18°31' W 117°42'1 0.6 25.9
2014-Oct-24 13:00N 18°32' W 117°43'2 0.3 25.9
2014-Oct-24 06:00N 18°33' W 117°44'1 0.7 26.0
2014-Oct-24 05:00N 18°34' W 117°45'0 0.0 26.0
2014-Oct-24 04:00N 18°34' W 117°45'1 0.5 26.0
2014-Oct-24 03:00N 18°34' W 117°45'1 0.8 26.0
2014-Oct-24 02:00N 18°34' W 117°46'1 0.6 26.0
2014-Oct-24 01:00N 18°34' W 117°46'0 0.0 26.0
2014-Oct-23 23:00N 18°34' W 117°46'1 0.7 26.1
2014-Oct-23 22:00N 18°35' W 117°46'0 0.0 26.1
2014-Oct-23 19:00N 18°35' W 117°46'1 0.7 25.9
2014-Oct-23 17:00N 18°35' W 117°47'0 0.1 25.9
2014-Oct-23 13:00N 18°36' W 117°48'1 0.6 25.9
2014-Oct-23 11:00N 18°37' W 117°48'1 0.3 25.9
2014-Oct-23 06:00N 18°38' W 117°49'1 0.9 26.0
2014-Oct-23 05:00N 18°38' W 117°49'1 0.3 26.0
2014-Oct-23 03:00N 18°38' W 117°49'4 1.8 26.0
2014-Oct-23 01:00N 18°42' W 117°50'0 0.0 26.0
2014-Oct-23 00:00N 18°42' W 117°50'0 0.0 26.0
2014-Oct-22 23:00N 18°42' W 117°50'2 0.3 26.1
2014-Oct-22 17:00N 18°43' W 117°52'0 0.0 25.9
2014-Oct-22 16:00N 18°43' W 117°52'0 0.0 25.9
2014-Oct-22 14:00N 18°43' W 117°52'4 1.8 25.9
2014-Oct-22 12:00N 18°46' W 117°54'0 0.0 25.9
2014-Oct-22 11:00N 18°46' W 117°54'0 0.0 25.9
2014-Oct-22 07:00N 18°46' W 117°54'1 0.2 26.0
2014-Oct-22 04:00N 18°46' W 117°55'0 0.2 26.0
2014-Oct-22 02:00N 18°47' W 117°55'0 0.0 26.0
2014-Oct-22 01:00N 18°47' W 117°55'2 0.8 26.1
2014-Oct-21 22:00N 18°48' W 117°56'0 0.0 26.3
2014-Oct-21 20:00N 18°48' W 117°56'1 0.9 26.2
2014-Oct-21 19:00N 18°49' W 117°56'   26.1
Track history (hours):
 
Tides and Currents Weather Stations Pressure Air Temp Water Temp Dewpoint Dewpoint Depression Visibility Wind Speed Wind Dir Waves Ship Positions

Drifting buoy 46930

Last reported at 2014-Oct-31 18:00 UTC. Time now 2014-Nov-01 02:44 UTC.
Position N 18°06' W 117°21'.

Water temperature 26.2 ° C

Date/timePositionNaut miles runAvg speedWind from/ knotsBaromVisibWave heightAir tempDewpointWater temp
2014-Oct-31 18:00N 18°06' W 117°21'0 0.2 26.2
2014-Oct-31 17:00N 18°06' W 117°20'2 2.0 26.2
2014-Oct-31 16:00N 18°06' W 117°22'0 0.0 26.2
2014-Oct-31 14:00N 18°06' W 117°22'1 0.5 26.2
2014-Oct-31 12:00N 18°05' W 117°22'0 0.0 26.2
2014-Oct-31 10:00N 18°05' W 117°22'0 0.1 26.2
2014-Oct-31 08:00N 18°04' W 117°22'0 0.3 26.2
2014-Oct-31 07:00N 18°04' W 117°22'1 0.9 26.2
2014-Oct-31 06:00N 18°04' W 117°23'1 0.2 26.2
2014-Oct-31 02:00N 18°04' W 117°22'0 0.1 26.3
2014-Oct-30 22:00N 18°04' W 117°22'0 0.2 26.5
2014-Oct-30 20:00N 18°05' W 117°23'0 0.1 26.4
2014-Oct-30 19:00N 18°05' W 117°23'1 0.5 26.3
2014-Oct-30 18:00N 18°05' W 117°23'1 0.8 26.3
2014-Oct-30 17:00N 18°05' W 117°24'1 0.9 26.2
2014-Oct-30 16:00N 18°05' W 117°25'0 0.0 26.2
2014-Oct-30 14:00N 18°05' W 117°25'1 0.3 26.2
2014-Oct-30 12:00N 18°05' W 117°24'1 0.4 26.2
2014-Oct-30 10:00N 18°05' W 117°25'0 0.1 26.2
2014-Oct-30 08:00N 18°05' W 117°25'1 0.3 26.2
2014-Oct-30 06:00N 18°05' W 117°25'2 1.7 26.2
2014-Oct-30 05:00N 18°04' W 117°26'1 0.7 26.2
2014-Oct-30 03:00N 18°05' W 117°25'2 0.8 26.3
2014-Oct-30 00:00N 18°06' W 117°28'0 0.0 26.4
2014-Oct-29 23:00N 18°06' W 117°28'1 1.0 26.4
2014-Oct-29 22:00N 18°06' W 117°29'0 0.1 26.4
2014-Oct-29 20:00N 18°06' W 117°29'1 0.8 26.3
2014-Oct-29 19:00N 18°05' W 117°29'1 0.8 26.3
2014-Oct-29 18:00N 18°05' W 117°30'0 0.0 26.2
2014-Oct-29 17:00N 18°05' W 117°30'1 0.9 26.1
2014-Oct-29 16:00N 18°04' W 117°30'1 0.2 26.1
2014-Oct-29 11:00N 18°05' W 117°29'0 0.1 26.1
2014-Oct-29 10:00N 18°04' W 117°29'1 0.1 26.1
2014-Oct-29 05:00N 18°05' W 117°29'1 0.5 26.2
2014-Oct-29 03:00N 18°05' W 117°29'0 0.0 26.2
2014-Oct-29 02:00N 18°05' W 117°29'1 1.4 26.3
2014-Oct-29 01:00N 18°07' W 117°29'2 1.8 26.3
2014-Oct-29 00:00N 18°08' W 117°30'0 0.1 26.3
2014-Oct-28 22:00N 18°08' W 117°30'1 1.1 26.4
2014-Oct-28 21:00N 18°08' W 117°31'0 0.1 26.3
2014-Oct-28 20:00N 18°08' W 117°32'1 0.3 26.3
2014-Oct-28 18:00N 18°09' W 117°32'1 0.6 26.2
2014-Oct-28 16:00N 18°09' W 117°33'1 0.3 26.1
2014-Oct-28 12:00N 18°09' W 117°34'1 0.9 26.1
2014-Oct-28 11:00N 18°09' W 117°35'0 0.0 26.1
2014-Oct-28 10:00N 18°09' W 117°35'0 0.0 26.1
2014-Oct-28 08:00N 18°09' W 117°35'1 0.4 26.1
2014-Oct-28 06:00N 18°09' W 117°34'0 0.1 26.2
2014-Oct-28 03:00N 18°09' W 117°34'1 0.6 26.2
2014-Oct-28 02:00N 18°10' W 117°34'0 0.1 26.2
2014-Oct-28 01:00N 18°09' W 117°34'1 0.6 26.2
2014-Oct-27 23:00N 18°10' W 117°36'0 0.1 26.3
2014-Oct-27 22:00N 18°10' W 117°36'0 0.1 26.3
2014-Oct-27 20:00N 18°10' W 117°36'1 0.6 26.3
2014-Oct-27 18:00N 18°11' W 117°35'1 0.7 26.2
2014-Oct-27 17:00N 18°12' W 117°35'0 0.0 26.2
2014-Oct-27 16:00N 18°12' W 117°35'2 0.6 26.2
2014-Oct-27 13:00N 18°13' W 117°35'0 0.0 26.2
2014-Oct-27 12:00N 18°13' W 117°35'0 0.3 26.2
2014-Oct-27 11:00N 18°14' W 117°35'1 1.1 26.2
2014-Oct-27 10:00N 18°14' W 117°36'2 0.3 26.2
2014-Oct-27 04:00N 18°16' W 117°36'0 0.0 26.3
2014-Oct-27 03:00N 18°16' W 117°36'2 0.5 26.3
2014-Oct-26 23:00N 18°16' W 117°38'1 0.7 26.4
2014-Oct-26 22:00N 18°16' W 117°38'0 0.2 26.4
2014-Oct-26 20:00N 18°17' W 117°38'0 0.1 26.5
2014-Oct-26 15:00N 18°16' W 117°38'0 0.0 26.2
2014-Oct-26 13:00N 18°16' W 117°38'1 0.3 26.2
2014-Oct-26 11:00N 18°17' W 117°38'1 0.5 26.2
2014-Oct-26 10:00N 18°17' W 117°37'0 0.0 26.3
2014-Oct-26 08:00N 18°17' W 117°37'2 1.1 26.3
2014-Oct-26 06:00N 18°19' W 117°37'1 0.3 26.4
2014-Oct-26 02:00N 18°20' W 117°36'1 0.7 26.5
2014-Oct-26 00:00N 18°21' W 117°37'3 0.8 26.6
2014-Oct-25 20:00N 18°24' W 117°38'1 0.4 26.7
2014-Oct-25 18:00N 18°25' W 117°38'0 0.0 26.3
2014-Oct-25 17:00N 18°25' W 117°38'1 1.2 26.3
2014-Oct-25 16:00N 18°25' W 117°40'0 0.0 26.2
2014-Oct-25 15:00N 18°25' W 117°40'1 0.3 26.1
2014-Oct-25 12:00N 18°25' W 117°40'1 0.9 26.1
2014-Oct-25 11:00N 18°26' W 117°41'0 0.1 26.1
2014-Oct-25 07:00N 18°26' W 117°41'1 1.0 26.2
2014-Oct-25 06:00N 18°27' W 117°41'0 0.0 26.2
2014-Oct-25 05:00N 18°27' W 117°41'1 0.4 26.2
2014-Oct-25 02:00N 18°27' W 117°40'1 0.8 26.3
2014-Oct-25 01:00N 18°27' W 117°41'0 0.2 26.3
2014-Oct-24 23:00N 18°28' W 117°41'2 0.4 26.4
2014-Oct-24 18:00N 18°30' W 117°40'0 0.0 26.1
2014-Oct-24 17:00N 18°30' W 117°40'2 2.0 26.0
2014-Oct-24 16:00N 18°31' W 117°42'0 0.1 26.0
2014-Oct-24 14:00N 18°31' W 117°42'1 0.6 25.9
2014-Oct-24 13:00N 18°32' W 117°43'2 0.3 25.9
2014-Oct-24 06:00N 18°33' W 117°44'1 0.7 26.0
2014-Oct-24 05:00N 18°34' W 117°45'0 0.0 26.0
2014-Oct-24 04:00N 18°34' W 117°45'1 0.5 26.0
2014-Oct-24 03:00N 18°34' W 117°45'1 0.8 26.0
2014-Oct-24 02:00N 18°34' W 117°46'1 0.6 26.0
2014-Oct-24 01:00N 18°34' W 117°46'0 0.0 26.0
2014-Oct-23 23:00N 18°34' W 117°46'1 0.7 26.1
2014-Oct-23 22:00N 18°35' W 117°46'0 0.0 26.1
2014-Oct-23 19:00N 18°35' W 117°46'1 0.7 25.9
2014-Oct-23 17:00N 18°35' W 117°47'0 0.1 25.9
2014-Oct-23 13:00N 18°36' W 117°48'1 0.6 25.9
2014-Oct-23 11:00N 18°37' W 117°48'1 0.3 25.9
2014-Oct-23 06:00N 18°38' W 117°49'1 0.9 26.0
2014-Oct-23 05:00N 18°38' W 117°49'1 0.3 26.0
2014-Oct-23 03:00N 18°38' W 117°49'4 1.8 26.0
2014-Oct-23 01:00N 18°42' W 117°50'0 0.0 26.0
2014-Oct-23 00:00N 18°42' W 117°50'0 0.0 26.0
2014-Oct-22 23:00N 18°42' W 117°50'2 0.3 26.1
2014-Oct-22 17:00N 18°43' W 117°52'0 0.0 25.9
2014-Oct-22 16:00N 18°43' W 117°52'0 0.0 25.9
2014-Oct-22 14:00N 18°43' W 117°52'4 1.8 25.9
2014-Oct-22 12:00N 18°46' W 117°54'0 0.0 25.9
2014-Oct-22 11:00N 18°46' W 117°54'0 0.0 25.9
2014-Oct-22 07:00N 18°46' W 117°54'1 0.2 26.0
2014-Oct-22 04:00N 18°46' W 117°55'0 0.2 26.0
2014-Oct-22 02:00N 18°47' W 117°55'0 0.0 26.0
2014-Oct-22 01:00N 18°47' W 117°55'2 0.8 26.1
2014-Oct-21 22:00N 18°48' W 117°56'0 0.0 26.3
2014-Oct-21 20:00N 18°48' W 117°56'1 0.9 26.2
2014-Oct-21 19:00N 18°49' W 117°56'   26.1

Dump ship's entire track history